createdAt,value
2022-08-03T00:02:18.230Z,23.21
2022-08-03T00:04:45.668Z,23.02
2022-08-03T00:07:12.906Z,22.76
2022-08-03T00:09:40.136Z,22.70
2022-08-03T00:12:09.913Z,22.49
2022-08-03T00:14:37.313Z,22.46
2022-08-03T00:17:04.599Z,22.98
2022-08-03T00:19:31.934Z,22.96
2022-08-03T00:21:59.231Z,22.79
2022-08-03T00:24:26.614Z,22.69
2022-08-03T00:26:53.845Z,22.75
2022-08-03T00:29:21.091Z,22.96
2022-08-03T00:31:52.790Z,22.92
2022-08-03T00:34:36.452Z,22.69
2022-08-03T00:37:14.292Z,22.60
2022-08-03T00:39:45.959Z,22.79
2022-08-03T00:42:13.891Z,22.93
2022-08-03T00:44:44.508Z,22.82
2022-08-03T00:47:12.308Z,22.79
2022-08-03T00:49:41.139Z,22.70
2022-08-03T00:52:09.512Z,22.69
2022-08-03T00:54:40.271Z,22.45
2022-08-03T00:57:07.754Z,22.46
2022-08-03T00:59:35.237Z,22.52
2022-08-03T01:02:02.732Z,22.61
2022-08-03T01:04:30.005Z,22.43
2022-08-03T01:07:20.043Z,21.99
2022-08-03T01:09:47.305Z,21.95
2022-08-03T01:12:22.598Z,22.07
2022-08-03T01:14:58.673Z,22.20
2022-08-03T01:17:31.597Z,22.21
2022-08-03T01:20:11.087Z,22.24
2022-08-03T01:22:44.106Z,22.33
2022-08-03T01:25:14.193Z,22.12
2022-08-03T01:27:53.561Z,22.17
2022-08-03T01:30:21.184Z,22.14
2022-08-03T01:32:59.107Z,22.17
2022-08-03T01:35:38.681Z,22.25
2022-08-03T01:38:13.706Z,22.20
2022-08-03T01:40:45.714Z,22.16
2022-08-03T01:43:15.254Z,22.14
2022-08-03T01:46:03.320Z,22.13
2022-08-03T01:48:31.837Z,22.14
2022-08-03T01:50:59.814Z,22.15
2022-08-03T01:53:27.719Z,22.15
2022-08-03T01:55:55.828Z,22.26
2022-08-03T01:58:25.845Z,22.24
2022-08-03T02:00:53.729Z,22.29
2022-08-03T02:03:21.612Z,22.24
2022-08-03T02:05:57.201Z,22.16
2022-08-03T02:08:34.364Z,22.05
2022-08-03T02:11:02.449Z,21.93
2022-08-03T02:13:30.852Z,21.75
2022-08-03T02:15:58.348Z,21.88
2022-08-03T02:18:26.024Z,21.94
2022-08-03T02:20:53.935Z,22.00
2022-08-03T02:23:21.505Z,22.08
2022-08-03T02:25:52.792Z,22.03
2022-08-03T02:28:21.246Z,22.02
2022-08-03T02:30:53.816Z,22.06
2022-08-03T02:33:30.299Z,22.13
2022-08-03T02:35:58.324Z,22.19
2022-08-03T02:38:28.151Z,22.25
2022-08-03T02:40:57.225Z,22.14
2022-08-03T02:43:25.474Z,22.23
2022-08-03T02:45:53.949Z,22.21
2022-08-03T02:48:23.583Z,22.17
2022-08-03T02:50:57.091Z,22.02
2022-08-03T02:53:24.708Z,21.90
2022-08-03T02:55:55.293Z,21.96
2022-08-03T02:58:24.426Z,22.12
2022-08-03T03:00:55.675Z,22.04
2022-08-03T03:03:23.212Z,22.12
2022-08-03T03:05:57.515Z,22.02
2022-08-03T03:08:28.911Z,22.02
2022-08-03T03:11:00.525Z,21.84
2022-08-03T03:13:28.971Z,21.61
2022-08-03T03:15:57.846Z,21.68
2022-08-03T03:18:28.711Z,21.67
2022-08-03T03:20:56.485Z,21.79
2022-08-03T03:23:25.083Z,21.87
2022-08-03T03:25:53.354Z,21.84
2022-08-03T03:28:20.889Z,21.88
2022-08-03T03:30:52.553Z,21.73
2022-08-03T03:33:21.751Z,21.78
2022-08-03T03:35:49.310Z,21.82
2022-08-03T03:38:16.563Z,21.77
2022-08-03T03:40:45.290Z,21.66
2022-08-03T03:43:13.062Z,21.63
2022-08-03T03:45:43.346Z,21.58
2022-08-03T03:48:11.001Z,21.67
2022-08-03T03:50:41.048Z,21.64
2022-08-03T03:53:12.166Z,21.64
2022-08-03T03:55:59.111Z,21.53
2022-08-03T03:58:27.555Z,21.51
2022-08-03T04:00:57.177Z,21.62
2022-08-03T04:03:24.425Z,21.73
2022-08-03T04:06:09.961Z,21.75
2022-08-03T04:08:55.577Z,21.72
2022-08-03T04:11:30.351Z,21.79
2022-08-03T04:14:06.286Z,21.63
2022-08-03T04:16:41.875Z,21.44
2022-08-03T04:19:14.013Z,21.38
2022-08-03T04:21:44.279Z,21.56
2022-08-03T04:24:13.553Z,21.67
2022-08-03T04:26:41.918Z,21.73
2022-08-03T04:29:11.023Z,21.83
2022-08-03T04:31:39.969Z,21.80
2022-08-03T04:34:07.796Z,21.73
2022-08-03T04:36:38.559Z,21.52
2022-08-03T04:39:10.904Z,21.70
2022-08-03T04:42:04.269Z,21.50
2022-08-03T04:44:32.632Z,21.42
2022-08-03T04:47:00.481Z,21.71
2022-08-03T04:49:29.263Z,21.84
2022-08-03T04:51:56.736Z,22.00
2022-08-03T04:54:24.053Z,22.08
2022-08-03T04:56:51.400Z,22.22
2022-08-03T04:59:21.549Z,22.20
2022-08-03T05:01:48.861Z,22.39
2022-08-03T05:04:16.433Z,22.53
2022-08-03T05:06:47.864Z,22.65
2022-08-03T05:09:16.147Z,22.62
2022-08-03T05:12:06.397Z,22.66
2022-08-03T05:14:37.779Z,22.70
2022-08-03T05:17:08.931Z,22.57
2022-08-03T05:19:36.249Z,22.62
2022-08-03T05:22:03.656Z,22.79
2022-08-03T05:24:32.358Z,22.86
2022-08-03T05:26:59.612Z,22.94
2022-08-03T05:29:26.907Z,23.07
2022-08-03T05:31:54.211Z,23.18
2022-08-03T05:34:21.455Z,23.34
2022-08-03T05:36:48.643Z,23.44
2022-08-03T05:39:16.156Z,23.48
2022-08-03T05:41:43.469Z,23.51
2022-08-03T05:44:10.821Z,23.63
2022-08-03T05:46:38.136Z,23.64
2022-08-03T05:49:05.510Z,23.76
2022-08-03T05:51:32.866Z,23.92
2022-08-03T05:54:00.306Z,24.03
2022-08-03T05:56:27.608Z,24.16
2022-08-03T05:58:54.887Z,24.27
2022-08-03T06:01:22.514Z,24.41
2022-08-03T06:03:50.203Z,24.51
2022-08-03T06:06:17.730Z,24.64
2022-08-03T06:08:45.724Z,24.78
2022-08-03T06:11:13.243Z,24.88
2022-08-03T06:13:41.941Z,25.00
2022-08-03T06:16:12.655Z,25.25
2022-08-03T06:18:40.565Z,25.35
2022-08-03T06:21:14.276Z,25.55
2022-08-03T06:23:54.643Z,26.10
2022-08-03T06:26:27.860Z,27.48
2022-08-03T06:28:55.635Z,29.53
2022-08-03T06:31:32.393Z,30.85
2022-08-03T06:34:32.237Z,32.38
2022-08-03T06:36:48.644Z,33.17
2022-08-03T06:39:15.914Z,33.69
2022-08-03T06:41:44.771Z,33.83
2022-08-03T09:17:03.117Z,39.38
2022-08-03T09:19:31.628Z,40.40
2022-08-03T09:22:09.722Z,39.16
2022-08-03T09:25:14.730Z,37.70
2022-08-03T09:27:44.997Z,37.59
2022-08-03T09:30:33.300Z,39.06
2022-08-03T09:33:04.952Z,40.33
2022-08-03T09:35:53.118Z,40.87
2022-08-03T09:38:27.123Z,39.95
2022-08-03T09:40:59.481Z,42.19
2022-08-03T09:43:28.643Z,40.88
2022-08-03T09:46:05.677Z,40.01
2022-08-03T09:48:36.976Z,39.44
2022-08-03T09:51:12.779Z,36.78
2022-08-03T09:53:59.166Z,37.13
2022-08-03T09:56:39.498Z,37.32
2022-08-03T09:59:07.055Z,37.27
2022-08-03T10:01:35.417Z,36.58
2022-08-03T10:04:05.194Z,35.40
2022-08-03T10:06:33.045Z,34.65
2022-08-03T10:09:10.452Z,35.86
2022-08-03T10:11:41.738Z,36.30
2022-08-03T10:14:19.309Z,36.23
2022-08-03T10:16:47.678Z,37.33
2022-08-03T10:19:19.442Z,37.06
2022-08-03T10:21:49.596Z,37.22
2022-08-03T10:24:17.533Z,36.52
2022-08-03T10:26:49.557Z,36.59
2022-08-03T10:29:21.639Z,35.67
2022-08-03T10:31:54.733Z,36.49
2022-08-03T10:34:26.822Z,36.67
2022-08-03T10:36:57.149Z,35.79
2022-08-03T10:39:27.731Z,35.55
2022-08-03T10:41:57.644Z,35.38
2022-08-03T10:44:26.259Z,35.95
2022-08-03T10:46:54.242Z,36.79
2022-08-03T10:49:33.777Z,36.65
2022-08-03T10:52:12.797Z,36.02
2022-08-03T10:55:00.105Z,36.17
2022-08-03T10:57:48.752Z,37.05
2022-08-03T11:00:19.402Z,36.72
2022-08-03T11:03:06.420Z,36.64
2022-08-03T11:05:37.819Z,34.96
2022-08-03T11:08:21.426Z,35.18
2022-08-03T11:10:52.225Z,35.21
2022-08-03T11:13:20.970Z,35.19
2022-08-03T11:15:49.784Z,35.45
2022-08-03T11:18:17.620Z,34.35
2022-08-03T11:20:49.401Z,34.29
2022-08-03T11:23:17.984Z,35.49
2022-08-03T11:26:03.849Z,35.37
2022-08-03T11:28:33.723Z,34.78
2022-08-03T11:31:47.238Z,34.59
2022-08-03T11:34:12.256Z,34.78
2022-08-03T11:36:58.575Z,34.09
2022-08-03T11:39:42.717Z,34.31
2022-08-03T11:42:24.926Z,33.40
2022-08-03T11:44:53.802Z,34.05
2022-08-03T11:47:24.492Z,33.52
2022-08-03T11:49:59.214Z,33.29
2022-08-03T11:52:28.734Z,33.91
2022-08-03T11:54:57.875Z,34.21
2022-08-03T11:59:01.264Z,33.85
2022-08-03T12:00:20.944Z,33.97
2022-08-03T12:03:22.619Z,34.41
2022-08-03T12:05:53.613Z,34.90
2022-08-03T12:08:34.260Z,34.61
2022-08-03T12:11:08.163Z,34.33
2022-08-03T12:14:44.124Z,34.65
2022-08-03T12:16:32.903Z,34.31
2022-08-03T12:19:04.214Z,34.65
2022-08-03T12:21:45.734Z,34.43
2022-08-03T12:24:29.658Z,34.73
2022-08-03T12:27:04.503Z,34.73
2022-08-03T12:29:33.262Z,35.02
2022-08-03T12:32:00.846Z,34.42
2022-08-03T12:34:47.245Z,33.62
2022-08-03T12:37:23.011Z,33.67
2022-08-03T12:40:02.528Z,33.98
2022-08-03T12:42:39.482Z,34.41
2022-08-03T12:45:32.326Z,34.50
2022-08-03T12:48:18.618Z,34.63
2022-08-03T12:51:15.411Z,34.88
2022-08-03T12:54:05.734Z,34.77
2022-08-03T12:57:35.782Z,34.77
2022-08-03T13:00:28.859Z,34.68
2022-08-03T13:03:39.287Z,34.46
2022-08-03T13:06:34.157Z,34.47
2022-08-03T13:09:09.916Z,34.10
2022-08-03T13:11:55.611Z,33.86
2022-08-03T13:14:28.293Z,33.58
2022-08-03T13:17:54.382Z,33.13
2022-08-03T13:21:12.055Z,33.46
2022-08-03T13:28:03.127Z,33.99
2022-08-03T13:30:52.113Z,34.28
2022-08-03T13:33:23.526Z,34.36
2022-08-03T13:36:05.815Z,34.39
2022-08-03T13:38:38.366Z,34.33
2022-08-03T13:41:11.024Z,34.37
2022-08-03T13:43:44.363Z,34.20
2022-08-03T13:46:19.658Z,34.06
2022-08-03T13:48:55.020Z,34.06
2022-08-03T13:51:31.897Z,34.31
2022-08-03T13:54:19.160Z,34.11
2022-08-03T13:58:05.130Z,33.76
2022-08-03T13:59:47.857Z,33.91
2022-08-03T14:02:36.158Z,33.68
2022-08-03T14:05:18.248Z,33.81
2022-08-03T14:07:52.031Z,34.02
2022-08-03T14:10:24.880Z,33.86
2022-08-03T14:13:06.403Z,33.61
2022-08-03T14:15:37.591Z,33.96
2022-08-03T14:18:27.710Z,34.13
2022-08-03T14:21:05.880Z,33.71
2022-08-03T14:24:14.695Z,33.61
2022-08-03T14:26:50.024Z,33.88
2022-08-03T14:29:56.332Z,33.45
2022-08-03T14:32:55.921Z,33.55
2022-08-03T14:35:29.089Z,33.73
2022-08-03T14:38:13.757Z,33.45
2022-08-03T14:41:20.186Z,33.74
2022-08-03T14:43:38.202Z,33.47
2022-08-03T14:46:07.138Z,33.74
2022-08-03T14:50:24.994Z,33.57
2022-08-03T14:51:33.425Z,33.62
2022-08-03T14:59:55.826Z,33.37
2022-08-03T15:07:04.312Z,33.50
2022-08-03T15:13:06.846Z,33.74
2022-08-03T15:20:00.424Z,33.25
2022-08-03T15:22:34.752Z,33.37
2022-08-03T15:25:04.085Z,33.33
2022-08-03T15:28:04.209Z,33.35
2022-08-03T15:30:41.278Z,33.52
2022-08-03T15:33:27.689Z,33.41
2022-08-03T15:36:10.410Z,33.52
2022-08-03T15:38:43.945Z,33.42
2022-08-03T15:41:19.492Z,33.56
2022-08-03T15:43:53.102Z,33.41
2022-08-03T15:46:29.899Z,33.52
2022-08-03T15:49:05.497Z,33.36
2022-08-03T15:52:05.054Z,33.47
2022-08-03T15:54:39.274Z,33.49
2022-08-03T15:57:13.747Z,33.50
2022-08-03T15:59:44.355Z,33.18
2022-08-03T16:05:07.825Z,33.28
2022-08-03T17:10:27.565Z,32.26
2022-08-03T17:13:00.405Z,32.32
2022-08-03T17:15:38.342Z,32.35
2022-08-03T17:18:21.918Z,32.26
2022-08-03T17:20:50.981Z,32.27
2022-08-03T17:23:34.479Z,32.25
2022-08-03T17:26:08.932Z,32.28
2022-08-03T17:28:50.021Z,32.05
2022-08-03T17:31:31.740Z,32.02
2022-08-03T17:34:01.201Z,32.11
2022-08-03T17:39:30.899Z,32.14
2022-08-03T17:42:05.357Z,31.59
2022-08-03T17:44:53.185Z,31.58
2022-08-03T17:47:23.616Z,31.55
2022-08-03T17:49:57.041Z,31.64
2022-08-03T17:52:48.465Z,31.38
2022-08-03T17:55:56.991Z,31.48
2022-08-03T17:58:11.934Z,31.26
2022-08-03T18:01:02.031Z,31.30
2022-08-03T18:03:58.753Z,31.08
2022-08-03T18:06:30.615Z,30.84
2022-08-03T18:09:04.693Z,30.77
2022-08-03T18:11:35.896Z,30.68
2022-08-03T18:14:16.449Z,30.54
2022-08-03T20:16:35.701Z,27.66
2022-08-03T20:34:58.847Z,27.67
2022-08-03T20:45:06.373Z,27.44
2022-08-03T20:57:12.517Z,27.44
2022-08-03T21:01:17.171Z,27.47
2022-08-03T21:24:30.115Z,27.10
2022-08-03T21:28:27.613Z,26.94
2022-08-03T21:35:14.267Z,26.74
2022-08-03T21:42:25.880Z,26.76
2022-08-03T21:45:18.080Z,26.71
2022-08-03T22:01:36.043Z,26.59
2022-08-03T22:04:42.700Z,26.52
2022-08-03T22:07:29.294Z,26.49
2022-08-03T22:10:05.378Z,26.41
2022-08-03T22:12:51.088Z,26.47
2022-08-03T22:15:55.307Z,26.26
2022-08-03T22:18:50.921Z,26.22
2022-08-03T22:24:33.793Z,25.93
2022-08-03T22:28:06.582Z,25.87
2022-08-03T22:31:36.903Z,25.90
2022-08-03T22:34:04.035Z,25.95
2022-08-03T22:36:55.160Z,25.84
2022-08-03T22:39:44.401Z,25.93
2022-08-03T22:43:11.240Z,26.03
2022-08-03T22:46:09.000Z,25.81
2022-08-03T22:48:42.041Z,25.75
2022-08-03T22:51:23.606Z,25.68
2022-08-03T22:58:31.031Z,25.48
2022-08-03T23:01:19.130Z,25.38
2022-08-03T23:04:20.388Z,25.43
2022-08-03T23:07:03.707Z,25.30
2022-08-03T23:10:00.920Z,25.41
2022-08-03T23:12:47.169Z,25.30
2022-08-03T23:18:36.770Z,25.48
2022-08-03T23:22:29.342Z,25.53
2022-08-03T23:25:13.690Z,25.47
2022-08-03T23:28:41.967Z,25.42
2022-08-03T23:31:52.475Z,25.31
2022-08-03T23:38:04.142Z,25.39
2022-08-03T23:40:53.040Z,25.35
2022-08-03T23:43:45.387Z,25.18
2022-08-03T23:46:26.498Z,25.33
2022-08-03T23:49:59.798Z,25.32
2022-08-03T23:52:45.752Z,25.28
2022-08-03T23:55:38.828Z,25.23
2022-08-03T23:58:59.732Z,25.31
